createdAt,value
2022-11-02T00:01:22.117Z,99.90
2022-11-02T00:06:24.033Z,99.90
2022-11-02T00:11:25.879Z,99.90
2022-11-02T00:16:27.833Z,99.90
2022-11-02T00:21:29.764Z,99.90
2022-11-02T00:26:33.628Z,99.90
2022-11-02T00:31:35.584Z,99.90
2022-11-02T00:36:37.422Z,99.90
2022-11-02T00:41:39.273Z,99.90
2022-11-02T00:46:41.130Z,99.90
2022-11-02T00:51:48.472Z,99.90
2022-11-02T00:56:50.505Z,99.90
2022-11-02T01:01:52.418Z,99.90
2022-11-02T01:06:54.311Z,99.90
2022-11-02T01:11:56.498Z,99.90
2022-11-02T01:16:58.419Z,99.90
2022-11-02T01:22:00.269Z,99.90
2022-11-02T01:27:02.264Z,99.90
2022-11-02T01:32:04.458Z,99.90
2022-11-02T01:37:06.301Z,99.90
2022-11-02T01:42:23.460Z,99.90
2022-11-02T01:47:28.472Z,99.90
2022-11-02T01:52:37.531Z,99.90
2022-11-02T01:57:41.440Z,99.90
2022-11-02T02:02:51.792Z,99.90
2022-11-02T02:07:54.754Z,99.90
2022-11-02T02:12:56.612Z,99.90
2022-11-02T02:18:04.115Z,99.90
2022-11-02T02:23:31.149Z,99.90
2022-11-02T02:28:38.971Z,99.90
2022-11-02T02:33:49.481Z,99.90
2022-11-02T02:39:05.294Z,99.90
2022-11-02T02:44:10.756Z,99.90
2022-11-02T02:49:16.301Z,99.90
2022-11-02T02:54:21.947Z,99.90
2022-11-02T02:59:28.149Z,99.90
2022-11-02T03:04:29.986Z,99.90
2022-11-02T03:09:37.907Z,99.90
2022-11-02T03:15:13.877Z,99.90
2022-11-02T03:20:29.975Z,99.90
2022-11-02T03:25:59.115Z,99.90
2022-11-02T03:31:13.372Z,99.90
2022-11-02T03:36:22.788Z,99.90
2022-11-02T03:41:25.383Z,99.90
2022-11-02T03:46:27.844Z,99.90
2022-11-02T03:51:30.372Z,99.90
2022-11-02T03:56:37.656Z,99.90
2022-11-02T04:01:42.484Z,99.90
2022-11-02T04:06:45.038Z,99.90
2022-11-02T04:12:05.384Z,99.90
2022-11-02T04:22:55.106Z,99.90
2022-11-02T04:28:07.137Z,99.90
2022-11-02T04:33:27.311Z,99.90
2022-11-02T04:38:42.429Z,99.90
2022-11-02T04:43:44.506Z,99.90
2022-11-02T04:48:46.567Z,99.90
2022-11-02T04:53:49.314Z,99.90
2022-11-02T04:58:52.734Z,99.90
2022-11-02T05:03:55.402Z,99.90
2022-11-02T05:08:57.304Z,99.90
2022-11-02T05:13:59.129Z,99.90
2022-11-02T05:19:00.967Z,99.90
2022-11-02T05:24:02.879Z,99.90
2022-11-02T05:29:04.859Z,99.90
2022-11-02T05:34:06.739Z,99.90
2022-11-02T05:39:08.687Z,99.90
2022-11-02T05:44:10.598Z,99.90
2022-11-02T05:49:12.443Z,99.90
2022-11-02T05:54:14.350Z,99.90
2022-11-02T05:59:16.322Z,99.90
2022-11-02T06:04:18.175Z,99.90
2022-11-02T06:09:20.037Z,99.90
2022-11-02T06:14:21.889Z,99.90
2022-11-02T06:19:23.767Z,99.90
2022-11-02T06:24:25.619Z,99.90
2022-11-02T06:29:27.527Z,99.90
2022-11-02T06:34:29.359Z,99.90
2022-11-02T06:39:31.269Z,99.90
2022-11-02T06:44:33.122Z,99.90
2022-11-02T06:49:44.071Z,99.90
2022-11-02T06:54:45.896Z,99.90
2022-11-02T06:59:53.665Z,99.90
2022-11-02T07:04:56.103Z,99.90
2022-11-02T07:09:57.924Z,99.90
2022-11-02T07:14:59.901Z,99.90
2022-11-02T07:20:02.030Z,99.90
2022-11-02T07:25:04.239Z,99.90
2022-11-02T07:30:07.619Z,99.90
2022-11-02T07:35:11.317Z,99.90
2022-11-02T07:40:16.799Z,99.90
2022-11-02T07:45:18.647Z,99.90
2022-11-02T07:50:22.359Z,99.90
2022-11-02T07:55:26.548Z,99.90
2022-11-02T08:00:31.094Z,99.90
2022-11-02T08:05:37.691Z,99.90
2022-11-02T08:10:40.705Z,99.90
2022-11-02T08:15:42.639Z,99.90
2022-11-02T08:20:46.221Z,99.90
2022-11-02T08:25:49.445Z,99.90
2022-11-02T08:30:51.794Z,99.90
2022-11-02T08:35:53.740Z,99.90
2022-11-02T08:40:56.193Z,99.90
2022-11-02T08:46:16.442Z,99.90
2022-11-02T08:51:18.768Z,99.90
2022-11-02T08:56:20.616Z,99.90
2022-11-02T09:01:22.492Z,99.90
2022-11-02T09:06:24.409Z,99.90
2022-11-02T09:11:26.386Z,99.90
2022-11-02T09:16:28.289Z,99.90
2022-11-02T09:21:30.249Z,99.90
2022-11-02T09:26:32.090Z,99.90
2022-11-02T09:31:34.105Z,99.90
2022-11-02T09:36:35.967Z,99.60
2022-11-02T09:41:50.684Z,99.00
2022-11-02T09:47:27.833Z,99.10
2022-11-02T09:52:25.212Z,96.70
2022-11-02T09:57:29.471Z,96.50
2022-11-02T10:03:12.016Z,96.60
2022-11-02T10:08:19.858Z,95.30
2022-11-02T10:13:51.247Z,96.30
2022-11-02T10:18:58.809Z,94.20
2022-11-02T10:24:16.684Z,93.40
2022-11-02T10:29:23.369Z,92.80
2022-11-02T10:34:29.160Z,92.50
2022-11-02T10:39:49.759Z,91.40
2022-11-02T10:45:09.056Z,91.90
2022-11-02T10:50:29.283Z,90.40
2022-11-02T10:55:47.578Z,90.60
2022-11-02T11:00:51.172Z,90.00
2022-11-02T11:06:01.279Z,90.00
2022-11-02T11:11:41.292Z,89.00
2022-11-02T11:16:54.282Z,88.40
2022-11-02T11:21:56.690Z,86.20
2022-11-02T11:27:17.591Z,88.30
2022-11-02T11:32:30.587Z,88.40
2022-11-02T11:37:33.230Z,88.20
2022-11-02T11:42:36.390Z,85.30
2022-11-02T11:47:40.386Z,85.00
2022-11-02T11:52:42.586Z,84.90
2022-11-02T11:57:44.510Z,84.10
2022-11-02T12:03:06.863Z,85.30
2022-11-02T12:08:18.566Z,86.40
2022-11-02T12:13:35.565Z,86.80
2022-11-02T12:18:49.287Z,87.50
2022-11-02T12:24:16.494Z,86.60
2022-11-02T12:29:24.221Z,86.50
2022-11-02T12:35:32.108Z,83.70
2022-11-02T12:40:50.280Z,85.30
2022-11-02T12:46:10.540Z,84.80
2022-11-02T12:51:22.452Z,84.60
2022-11-02T12:56:44.417Z,85.00
2022-11-02T13:01:47.942Z,86.00
2022-11-02T13:07:00.745Z,85.60
2022-11-02T13:12:14.719Z,86.80
2022-11-02T13:17:31.359Z,86.90
2022-11-02T13:22:35.818Z,87.10
2022-11-02T13:27:47.443Z,87.40
2022-11-02T13:33:05.238Z,88.40
2022-11-02T13:38:13.480Z,87.10
2022-11-02T13:43:24.474Z,87.70
2022-11-02T13:48:35.353Z,88.70
2022-11-02T13:53:39.748Z,88.00
2022-11-02T13:58:47.051Z,88.00
2022-11-02T14:03:58.806Z,88.70
2022-11-02T14:09:08.162Z,87.90
2022-11-02T14:14:09.910Z,89.00
2022-11-02T14:19:19.242Z,88.30
2022-11-02T14:24:33.661Z,87.70
2022-11-02T14:29:47.269Z,88.40
2022-11-02T14:34:54.806Z,88.40
2022-11-02T14:40:03.521Z,88.60
2022-11-02T14:45:26.821Z,88.90
2022-11-02T14:50:28.928Z,89.70
2022-11-02T14:55:36.144Z,90.10
2022-11-02T15:00:50.049Z,90.50
2022-11-02T15:06:13.527Z,91.20
2022-11-02T15:11:52.759Z,91.60
2022-11-02T15:16:54.653Z,91.90
2022-11-02T15:22:25.365Z,92.20
2022-11-02T15:27:28.547Z,92.20
2022-11-02T15:32:31.382Z,92.60
2022-11-02T15:37:50.429Z,93.00
2022-11-02T15:43:08.159Z,93.60
2022-11-02T15:48:16.252Z,94.40
2022-11-02T15:53:23.752Z,96.20
2022-11-02T15:58:38.972Z,97.30
2022-11-02T16:03:46.234Z,97.90
2022-11-02T16:08:48.079Z,99.10
2022-11-02T16:14:08.097Z,99.90
2022-11-02T16:19:18.968Z,99.90
2022-11-02T16:24:21.401Z,99.90
2022-11-02T16:29:30.623Z,99.90
2022-11-02T16:34:33.222Z,99.90
2022-11-02T16:39:37.699Z,99.90
2022-11-02T16:44:39.667Z,99.90
2022-11-02T16:49:53.671Z,99.90
2022-11-02T16:54:55.517Z,99.90
2022-11-02T16:59:59.601Z,99.90
2022-11-02T17:05:05.873Z,99.90
2022-11-02T17:10:19.300Z,99.90
2022-11-02T17:15:23.863Z,99.90
2022-11-02T17:20:26.359Z,99.90
2022-11-02T17:25:30.504Z,99.90
2022-11-02T17:30:35.206Z,99.90
2022-11-02T17:35:45.320Z,99.90
2022-11-02T17:40:52.298Z,99.90
2022-11-02T17:45:58.991Z,99.90
2022-11-02T17:51:00.924Z,99.90
2022-11-02T17:56:05.319Z,99.90
2022-11-02T18:01:07.375Z,99.90
2022-11-02T18:06:11.011Z,99.90
2022-11-02T18:11:13.205Z,99.90
2022-11-02T18:16:16.084Z,99.90
2022-11-02T18:21:18.125Z,99.90
2022-11-02T18:26:19.968Z,99.90
2022-11-02T18:31:21.805Z,99.90
2022-11-02T18:36:24.509Z,99.90
2022-11-02T18:41:34.712Z,99.90
2022-11-02T18:46:37.833Z,99.90
2022-11-02T18:51:45.679Z,99.90
2022-11-02T18:56:47.764Z,99.90
2022-11-02T19:01:50.789Z,99.90
2022-11-02T19:07:15.284Z,99.90
2022-11-02T19:12:27.326Z,99.90
2022-11-02T19:17:31.979Z,99.90
2022-11-02T19:22:33.907Z,99.90
2022-11-02T19:27:35.875Z,99.90
2022-11-02T19:32:37.694Z,99.90
2022-11-02T19:37:40.631Z,99.90
2022-11-02T19:42:42.579Z,99.90
2022-11-02T19:47:45.466Z,99.90
2022-11-02T19:52:49.085Z,99.90
2022-11-02T19:57:51.018Z,99.90
2022-11-02T20:02:54.112Z,99.90
2022-11-02T20:07:58.044Z,99.90
2022-11-02T20:13:00.111Z,99.90
2022-11-02T20:18:18.822Z,99.90
2022-11-02T20:23:22.039Z,99.90
2022-11-02T20:28:23.870Z,99.90
2022-11-02T20:33:25.791Z,99.90
2022-11-02T20:38:27.710Z,99.90
2022-11-02T20:43:29.530Z,99.90
2022-11-02T20:48:32.094Z,99.90
2022-11-02T20:53:33.913Z,99.90
2022-11-02T20:58:35.815Z,99.90
2022-11-02T21:03:37.687Z,99.90
2022-11-02T21:08:40.513Z,99.90
2022-11-02T21:13:51.415Z,99.90
2022-11-02T21:18:53.296Z,99.90
2022-11-02T21:23:55.553Z,99.90
2022-11-02T21:28:57.381Z,99.90
2022-11-02T21:34:04.927Z,99.90
2022-11-02T21:39:09.886Z,99.90
2022-11-02T21:44:12.130Z,99.90
2022-11-02T21:49:14.031Z,99.90
2022-11-02T21:54:16.256Z,99.90
2022-11-02T21:59:18.067Z,99.90
2022-11-02T22:04:31.855Z,99.90
2022-11-02T22:09:34.000Z,99.90
2022-11-02T22:14:36.909Z,99.90
2022-11-02T22:19:38.743Z,99.90
2022-11-02T22:24:44.601Z,99.90
2022-11-02T22:29:46.809Z,99.90
2022-11-02T22:34:48.651Z,99.90
2022-11-02T22:39:50.478Z,99.90
2022-11-02T22:44:55.086Z,99.90
2022-11-02T22:49:56.901Z,99.90
2022-11-02T22:54:58.721Z,99.90
2022-11-02T23:00:00.548Z,99.90
2022-11-02T23:05:02.665Z,99.90
2022-11-02T23:10:24.734Z,99.90
2022-11-02T23:15:26.554Z,99.90
2022-11-02T23:20:28.377Z,99.90
2022-11-02T23:25:30.324Z,99.90
2022-11-02T23:30:52.747Z,99.90
2022-11-02T23:36:13.275Z,99.90
2022-11-02T23:41:16.512Z,99.90
2022-11-02T23:46:18.542Z,99.90
2022-11-02T23:51:38.895Z,99.90
2022-11-02T23:56:43.575Z,99.90
